Terminal Aerodrome Forecast
Issued by NWS Central Illinois

Home | Current Version | Previous Version | Text Only | Print | Product List | Glossary On
Versions: 1 2 3 4 5 6 7 8 9 10 11 12 13
290
FTUS43 KILX 201722
TAFSPI
TAF
KSPI 201722Z 2018/2118 20008KT P6SM BKN015
     FM210400 17006KT 5SM -DZ BR OVC008=

USA.gov is the U.S. government's official web portal to all federal, state and local government web resources and services.